D25

Manitowish Waters Airport

Manitowish Waters, Wisconsin, USA
METAR KD25 170835Z AUTO 30005KT 10SM OVC021 M06/M08 A3017 RMK AO2 T10651077
Observed Flight Rules
Nov-17 @ 08:35 UTC (23 minutes ago) Marginal Visual Flight Rules
Wind Visibility Clouds
300° at 5 knots 10 miles
  • Overcast at 2,100' AGL
Temperatures Readings
Current -7°C / 19°F
Dewpoint -8°C / 18°F
Humidity 93%
Altimeter 30.17" Hg
Pressure 1022 hPa
Elevation 491
METAR KD25 170835Z AUTO 30005KT 10SM OVC021 M06/M08 A3017 RMK AO2 T10651077
Observed Flight Rules
Nov-17 @ 08:35 UTC
(23 minutes ago)
MVFR
Wind Visibility
300° at 5 knots 10 miles
Clouds
  • Overcast at 2,100' AGL
Temperature Dewpoint
-7°C / 19°F -8°C / 18°F
Humidity Altimeter Pressure
93% 30.17" Hg 1022 hPa